Time;durP1;ratioP1;P1;durP2;ratioP2;P2;SDS_P1;SDS_P2;PMS_P1;PMS_P2;Temp;Humidity;BMP_temperature;BMP_pressure;BME280_temperature;BME280_humidity;BME280_pressure;Samples;Min_cycle;Max_cycle;Signal;HPM_P1;HPM_P2
2022/02/02 00:00:34;;;;;;;44.33;9.40;;;7.00;99.90;;;;;;5059580;28;20063;-64
2022/02/02 00:03:07;;;;;;;53.17;12.52;;;7.00;99.90;;;;;;5059990;28;20271;-63
2022/02/02 00:05:48;;;;;;;56.90;11.13;;;7.10;99.90;;;;;;5064531;28;20048;-64
2022/02/02 00:08:52;;;;;;;58.78;13.95;;;7.20;99.90;;;;;;5049806;28;20051;-64
2022/02/02 00:13:55;;;;;;;61.25;13.65;;;7.10;99.90;;;;;;5069325;28;20519;-64
2022/02/02 00:18:58;;;;;;;54.78;10.85;;;7.10;99.90;;;;;;5069214;28;20056;-64
2022/02/02 00:21:46;;;;;;;66.10;13.77;;;7.00;99.90;;;;;;5068147;28;20037;-63
2022/02/02 00:24:29;;;;;;;75.97;14.68;;;7.10;99.90;;;;;;5050509;28;20079;-63
2022/02/02 00:26:59;;;;;;;66.95;14.23;;;7.20;99.90;;;;;;5069743;28;20127;-63
2022/02/02 00:29:32;;;;;;;62.87;13.73;;;7.10;99.90;;;;;;5068779;28;20797;-64
2022/02/02 00:32:11;;;;;;;63.55;15.45;;;7.10;99.90;;;;;;5068953;28;20143;-63
2022/02/02 00:34:36;;;;;;;60.72;15.38;;;7.10;99.90;;;;;;5067546;28;20541;-64
2022/02/02 00:37:03;;;;;;;63.33;13.88;;;7.20;99.90;;;;;;5068079;28;20036;-64
2022/02/02 00:39:30;;;;;;;70.70;10.32;;;7.20;99.90;;;;;;5051377;28;20091;-64
2022/02/02 00:41:56;;;;;;;66.93;14.70;;;7.20;99.90;;;;;;5068055;28;20067;-64
2022/02/02 00:44:26;;;;;;;57.85;10.85;;;7.10;99.90;;;;;;5051635;28;20418;-64
2022/02/02 00:46:53;;;;;;;69.13;12.65;;;7.10;99.90;;;;;;5044923;28;20056;-64
2022/02/02 00:49:20;;;;;;;65.75;12.73;;;7.10;99.90;;;;;;5060020;28;20048;-64
2022/02/02 00:51:47;;;;;;;72.15;16.20;;;7.20;99.90;;;;;;5054348;28;20060;-64
2022/02/02 00:54:15;;;;;;;68.35;14.45;;;7.20;99.90;;;;;;5068282;28;20548;-63
2022/02/02 00:56:42;;;;;;;80.68;13.10;;;7.20;99.90;;;;;;5069330;28;20056;-63
2022/02/02 00:59:08;;;;;;;31.40;7.30;;;7.10;99.90;;;;;;5066506;28;20043;-64
2022/02/02 01:01:34;;;;;;;34.35;7.78;;;6.90;99.90;;;;;;5067029;28;20037;-64
2022/02/02 01:04:00;;;;;;;29.27;7.90;;;6.70;99.90;;;;;;5049607;28;20036;-64
2022/02/02 01:06:28;;;;;;;33.28;7.55;;;6.70;99.90;;;;;;5069008;28;20048;-64
2022/02/02 01:19:43;;;;;;;44.45;9.57;;;6.70;99.90;;;;;;5068755;28;20083;-63
2022/02/02 01:30:09;;;;;;;57.22;12.55;;;6.60;99.90;;;;;;5067019;28;20506;-64
2022/02/02 01:32:36;;;;;;;52.40;10.43;;;6.60;99.90;;;;;;5068551;28;20064;-64
2022/02/02 01:35:13;;;;;;;57.92;12.40;;;6.60;99.90;;;;;;5054382;28;20051;-63
2022/02/02 01:37:39;;;;;;;45.63;10.40;;;6.60;99.90;;;;;;5067461;28;20547;-64
2022/02/02 01:40:13;;;;;;;53.65;11.35;;;6.60;99.90;;;;;;5068224;28;20044;-63
2022/02/02 01:42:47;;;;;;;55.80;11.80;;;6.60;99.90;;;;;;5067371;28;20045;-64
2022/02/02 01:45:21;;;;;;;68.40;12.77;;;6.60;99.90;;;;;;5067842;28;20581;-64
2022/02/02 01:48:11;;;;;;;60.15;9.98;;;6.60;99.90;;;;;;5056190;28;20051;-64
2022/02/02 01:51:04;;;;;;;59.92;12.07;;;6.60;99.90;;;;;;5051855;28;20526;-64
2022/02/02 01:56:08;;;;;;;60.47;13.85;;;6.60;99.90;;;;;;5066868;28;20122;-63
2022/02/02 02:01:03;;;;;;;64.25;12.90;;;6.60;99.90;;;;;;5067051;28;20478;-64
2022/02/02 02:03:29;;;;;;;51.35;9.68;;;6.60;99.90;;;;;;5067011;28;20045;-63
2022/02/02 02:05:55;;;;;;;46.47;11.52;;;6.70;99.90;;;;;;5067683;28;20058;-64
2022/02/02 02:08:22;;;;;;;50.63;10.88;;;6.60;99.90;;;;;;5066997;28;20083;-63
2022/02/02 02:10:48;;;;;;;46.45;10.77;;;6.70;99.90;;;;;;5067206;28;20041;-63
2022/02/02 02:13:41;;;;;;;54.38;10.18;;;6.70;99.90;;;;;;5037909;28;20150;-63
2022/02/02 02:16:05;;;;;;;36.15;6.82;;;6.70;99.90;;;;;;5066417;28;20059;-63
2022/02/02 02:18:31;;;;;;;55.85;8.23;;;6.60;99.90;;;;;;5068139;28;20044;-64
2022/02/02 02:20:57;;;;;;;65.13;11.35;;;6.60;99.90;;;;;;5066438;28;20077;-64
2022/02/02 02:23:24;;;;;;;46.38;8.55;;;6.50;99.90;;;;;;5066723;28;20044;-63
2022/02/02 02:25:51;;;;;;;44.30;8.20;;;6.50;99.90;;;;;;5060332;28;20037;-63
2022/02/02 02:28:29;;;;;;;51.08;10.13;;;6.50;99.90;;;;;;5048949;28;20053;-63
2022/02/02 02:31:06;;;;;;;55.85;9.23;;;6.40;99.90;;;;;;5064224;28;20045;-63
2022/02/02 02:33:53;;;;;;;48.78;10.50;;;6.40;99.90;;;;;;5066146;28;20044;-64
2022/02/02 02:58:40;;;;;;;79.43;14.63;;;6.50;99.90;;;;;;5060819;28;20602;-64
2022/02/02 03:58:11;;;;;;;45.80;10.07;;;6.40;99.90;;;;;;5066162;28;20098;-63
2022/02/02 04:01:23;;;;;;;53.25;10.00;;;6.40;99.90;;;;;;5065500;28;20056;-63
2022/02/02 04:03:38;;;;;;;53.95;10.75;;;6.40;99.90;;;;;;5048826;28;20119;-64
2022/02/02 04:06:07;;;;;;;52.45;11.10;;;6.40;99.90;;;;;;5063933;28;20075;-64
2022/02/02 04:08:38;;;;;;;61.20;14.02;;;6.40;99.90;;;;;;5051684;28;20037;-64
2022/02/02 04:11:13;;;;;;;73.57;14.07;;;6.40;99.90;;;;;;5052398;28;20049;-64
2022/02/02 04:54:28;;;;;;;64.30;14.15;;;6.40;99.90;;;;;;5039102;28;20053;-64
2022/02/02 05:07:41;;;;;;;47.25;10.38;;;6.40;99.90;;;;;;5048695;28;20060;-64
2022/02/02 05:20:49;;;;;;;53.05;9.55;;;6.40;99.90;;;;;;5048464;28;20045;-63
2022/02/02 05:40:50;;;;;;;49.70;8.38;;;6.40;99.90;;;;;;5045982;28;20495;-63
2022/02/02 05:53:13;;;;;;;59.80;10.38;;;6.40;99.90;;;;;;5024186;28;20511;-63
2022/02/02 05:55:40;;;;;;;53.20;8.63;;;6.40;99.90;;;;;;5025915;28;20045;-64
2022/02/02 05:58:07;;;;;;;52.00;7.20;;;6.40;99.90;;;;;;5038940;28;20565;-64
2022/02/02 06:00:37;;;;;;;68.22;9.52;;;6.40;99.90;;;;;;5067657;28;20098;-63
2022/02/02 06:03:11;;;;;;;54.00;9.50;;;6.40;99.90;;;;;;5067476;28;20123;-64
2022/02/02 06:05:38;;;;;;;52.55;8.60;;;6.30;99.90;;;;;;5067326;28;20147;-64
2022/02/02 06:08:15;;;;;;;53.85;9.50;;;6.30;99.90;;;;;;5067101;28;20487;-64
2022/02/02 06:10:42;;;;;;;64.65;9.93;;;6.30;99.90;;;;;;5065705;28;20155;-63
2022/02/02 06:13:09;;;;;;;48.95;8.40;;;6.30;99.90;;;;;;5068023;28;20037;-64
2022/02/02 06:15:35;;;;;;;50.40;9.20;;;6.30;99.90;;;;;;5045434;28;20049;-63
2022/02/02 06:18:03;;;;;;;51.72;8.45;;;6.30;99.90;;;;;;5067427;28;20135;-63
2022/02/02 06:20:29;;;;;;;48.72;9.43;;;6.30;99.90;;;;;;5060829;28;20057;-63
2022/02/02 06:23:13;;;;;;;52.85;9.30;;;6.40;99.90;;;;;;5045964;28;20039;-63
2022/02/02 06:25:44;;;;;;;64.30;10.32;;;6.40;99.90;;;;;;5059728;28;20402;-64
2022/02/02 06:28:22;;;;;;;58.65;9.07;;;6.30;99.90;;;;;;5066472;28;20044;-63
2022/02/02 06:30:59;;;;;;;59.72;9.35;;;6.30;99.90;;;;;;5065719;28;20056;-63
2022/02/02 06:33:36;;;;;;;45.45;9.00;;;6.30;99.90;;;;;;5066803;28;20066;-63
2022/02/02 06:36:04;;;;;;;57.42;8.57;;;6.30;99.90;;;;;;5066747;28;20045;-63
2022/02/02 06:38:31;;;;;;;46.47;9.52;;;6.30;99.90;;;;;;5042917;28;20059;-63
2022/02/02 06:40:58;;;;;;;49.40;8.60;;;6.30;99.90;;;;;;5042155;28;20539;-63
2022/02/02 06:43:25;;;;;;;42.78;6.65;;;6.40;99.90;;;;;;5061396;28;20037;-63
2022/02/02 06:45:51;;;;;;;49.80;9.02;;;6.40;99.90;;;;;;5059166;28;20049;-63
2022/02/02 06:48:17;;;;;;;38.45;7.03;;;6.30;99.90;;;;;;5048955;28;20064;-63
2022/02/02 06:50:56;;;;;;;50.38;7.03;;;6.30;99.90;;;;;;5029154;28;20559;-63
2022/02/02 06:53:28;;;;;;;45.80;8.18;;;6.30;99.90;;;;;;5046587;28;20063;-64
2022/02/02 06:56:04;;;;;;;47.22;9.43;;;6.30;99.90;;;;;;5066787;28;20072;-63
2022/02/02 06:58:58;;;;;;;51.88;9.73;;;6.30;99.90;;;;;;5063897;28;20490;-64
2022/02/02 07:01:46;;;;;;;55.95;7.07;;;6.30;99.90;;;;;;5058706;28;20047;-63
2022/02/02 07:07:56;;;;;;;64.82;8.45;;;6.20;99.90;;;;;;5026713;28;20055;-64
2022/02/02 07:11:25;;;;;;;47.05;8.23;;;6.40;99.90;;;;;;5062802;28;20053;-63
2022/02/02 07:18:50;;;;;;;67.82;10.27;;;6.30;99.90;;;;;;5066414;28;20143;-63
2022/02/02 07:34:56;;;;;;;41.25;6.63;;;6.30;99.90;;;;;;5047842;28;20049;-64
2022/02/02 07:37:32;;;;;;;50.08;7.57;;;6.40;99.90;;;;;;5065136;28;20244;-63
2022/02/02 07:40:02;;;;;;;57.97;8.50;;;6.40;99.90;;;;;;5066503;28;20051;-63
2022/02/02 07:42:29;;;;;;;61.40;8.32;;;6.40;99.90;;;;;;5047205;28;20445;-63
2022/02/02 07:45:09;;;;;;;46.22;8.68;;;6.40;99.90;;;;;;5035229;28;20111;-64
2022/02/02 07:47:41;;;;;;;29.75;5.15;;;6.40;99.90;;;;;;5066570;28;20052;-64
2022/02/02 07:50:09;;;;;;;51.20;6.15;;;6.30;99.90;;;;;;5065425;28;20045;-64
2022/02/02 07:52:36;;;;;;;40.97;6.90;;;6.10;99.90;;;;;;5066525;28;20442;-64
2022/02/02 07:55:04;;;;;;;50.67;7.32;;;6.00;99.90;;;;;;5046609;28;20123;-63
2022/02/02 07:57:30;;;;;;;49.38;7.35;;;6.00;99.90;;;;;;5065857;28;20048;-64
2022/02/02 08:00:00;;;;;;;56.22;7.32;;;6.10;99.90;;;;;;5065867;28;20040;-63
2022/02/02 08:05:14;;;;;;;64.18;10.18;;;6.20;99.90;;;;;;5052964;28;20055;-63
2022/02/02 08:07:46;;;;;;;51.45;9.60;;;6.30;99.90;;;;;;5058410;28;20040;-64
2022/02/02 08:10:19;;;;;;;52.42;7.80;;;6.30;99.90;;;;;;5061631;28;20557;-63
2022/02/02 08:15:12;;;;;;;43.00;7.47;;;6.30;99.90;;;;;;5063865;28;20037;-63
2022/02/02 08:17:39;;;;;;;49.50;6.95;;;6.40;99.90;;;;;;5064485;28;20041;-63
2022/02/02 08:20:06;;;;;;;63.97;9.07;;;6.40;99.90;;;;;;5064144;28;20048;-64
2022/02/02 08:22:32;;;;;;;56.30;9.80;;;6.40;99.90;;;;;;5067447;28;20051;-63
2022/02/02 08:24:58;;;;;;;50.78;9.25;;;6.40;99.90;;;;;;5047849;28;20041;-64
2022/02/02 08:27:26;;;;;;;51.83;7.85;;;6.40;99.90;;;;;;5063769;28;20040;-63
2022/02/02 08:29:53;;;;;;;43.08;7.35;;;6.40;99.90;;;;;;5063631;28;20045;-63
2022/02/02 08:32:19;;;;;;;51.60;7.75;;;6.40;99.90;;;;;;5063867;28;20041;-63
2022/02/02 08:34:48;;;;;;;50.22;6.95;;;6.50;99.90;;;;;;5061910;28;20118;-63
2022/02/02 08:37:15;;;;;;;49.90;9.00;;;6.50;99.90;;;;;;5066839;28;20041;-63
2022/02/02 08:39:59;;;;;;;49.35;9.73;;;6.60;99.90;;;;;;5040896;28;20045;-64
2022/02/02 08:42:29;;;;;;;45.92;7.57;;;6.60;99.90;;;;;;5057738;28;20450;-63
2022/02/02 08:45:16;;;;;;;49.10;8.15;;;6.70;99.90;;;;;;5066992;28;20051;-64
2022/02/02 08:47:47;;;;;;;41.17;7.97;;;6.70;99.90;;;;;;5060795;28;20056;-64
2022/02/02 08:50:13;;;;;;;41.38;8.13;;;6.70;99.90;;;;;;5062462;28;20040;-64
2022/02/02 08:52:50;;;;;;;41.83;7.35;;;6.80;99.90;;;;;;5060198;28;20194;-64
2022/02/02 08:55:19;;;;;;;49.35;8.45;;;6.80;99.90;;;;;;5030507;28;20384;-63
2022/02/02 08:57:53;;;;;;;41.60;6.75;;;6.80;99.90;;;;;;5057978;28;20060;-64
2022/02/02 09:00:24;;;;;;;49.33;7.55;;;6.80;99.90;;;;;;5061455;28;20071;-64
2022/02/02 09:05:19;;;;;;;43.22;6.05;;;6.80;99.90;;;;;;5066038;28;20052;-63
2022/02/02 09:05:41;;;;;;;48.00;6.90;;;6.80;99.90;;;;;;5068128;28;20493;-63
2022/02/02 09:08:07;;;;;;;56.42;8.23;;;6.90;99.90;;;;;;5046736;28;20041;-64
2022/02/02 09:24:22;;;;;;;57.28;10.80;;;7.20;99.90;;;;;;5058970;28;20049;-64
2022/02/02 09:34:44;;;;;;;58.03;9.30;;;7.40;99.90;;;;;;5064016;28;20046;-64
2022/02/02 09:37:10;;;;;;;55.63;12.48;;;7.40;99.90;;;;;;5046782;28;20105;-63
2022/02/02 09:39:43;;;;;;;53.55;10.20;;;7.40;99.90;;;;;;5067159;28;20033;-64
2022/02/02 09:42:13;;;;;;;49.83;8.35;;;7.40;99.90;;;;;;5064756;28;20059;-64
2022/02/02 09:44:42;;;;;;;42.17;8.57;;;7.50;99.90;;;;;;5067197;28;20372;-64
2022/02/02 09:47:21;;;;;;;47.83;11.65;;;7.40;99.90;;;;;;5047846;28;20381;-64
2022/02/02 09:50:08;;;;;;;49.65;8.98;;;7.40;99.90;;;;;;5055561;28;20061;-64
2022/02/02 09:52:39;;;;;;;54.88;10.00;;;7.50;99.90;;;;;;5045857;28;20045;-64
2022/02/02 09:55:12;;;;;;;38.85;6.38;;;7.40;99.90;;;;;;5043020;28;20151;-64
2022/02/02 09:58:19;;;;;;;41.88;7.85;;;7.50;99.90;;;;;;5057196;28;20049;-63
2022/02/02 10:05:58;;;;;;;42.63;7.88;;;7.40;99.90;;;;;;5061413;28;20056;-64
2022/02/02 10:14:31;;;;;;;44.15;9.05;;;7.40;99.90;;;;;;5067149;28;20084;-64
2022/02/02 10:16:57;;;;;;;57.70;7.90;;;7.40;99.90;;;;;;5046962;28;20060;-64
2022/02/02 10:19:36;;;;;;;47.85;9.52;;;7.40;99.90;;;;;;5067517;28;20048;-64
2022/02/02 10:22:22;;;;;;;42.40;7.68;;;7.40;99.90;;;;;;5038791;28;20388;-64
2022/02/02 10:24:53;;;;;;;42.13;7.32;;;7.40;99.90;;;;;;5065342;28;20405;-64
2022/02/02 10:27:36;;;;;;;27.80;5.85;;;7.40;99.90;;;;;;5064687;28;20041;-64
2022/02/02 10:30:11;;;;;;;32.70;5.47;;;7.50;99.90;;;;;;5052561;28;20462;-64
2022/02/02 10:32:42;;;;;;;45.83;8.95;;;7.70;99.90;;;;;;5067227;28;20417;-64
2022/02/02 10:35:09;;;;;;;49.80;9.25;;;7.80;99.90;;;;;;5065886;28;20573;-64
2022/02/02 10:37:38;;;;;;;45.28;6.05;;;7.80;99.90;;;;;;5066054;28;20047;-63
2022/02/02 10:40:06;;;;;;;40.80;10.73;;;7.90;99.90;;;;;;5047962;28;20056;-64
2022/02/02 10:42:43;;;;;;;42.67;7.40;;;7.90;99.90;;;;;;5048143;28;20036;-63
2022/02/02 10:45:22;;;;;;;40.13;9.45;;;8.00;99.90;;;;;;5061447;28;20048;-64
2022/02/02 10:47:57;;;;;;;44.73;9.80;;;8.10;99.90;;;;;;5038394;28;20076;-64
2022/02/02 10:50:39;;;;;;;46.20;9.30;;;8.20;99.90;;;;;;5043027;28;20045;-64
2022/02/02 10:56:02;;;;;;;46.83;9.23;;;8.30;99.90;;;;;;5045763;28;20084;-66
2022/02/02 11:08:54;;;;;;;30.50;5.55;;;8.40;99.90;;;;;;5039000;28;20594;-66
2022/02/02 11:11:20;;;;;;;43.10;6.88;;;8.50;99.90;;;;;;5026565;28;20048;-66
2022/02/02 11:13:49;;;;;;;36.60;8.93;;;8.50;99.90;;;;;;5044691;28;20399;-66
2022/02/02 11:16:21;;;;;;;37.78;7.65;;;8.50;99.90;;;;;;5024274;28;20404;-66
2022/02/02 11:18:47;;;;;;;40.92;8.45;;;8.50;99.90;;;;;;5037748;28;20115;-66
2022/02/02 11:21:21;;;;;;;42.45;6.95;;;8.50;99.90;;;;;;5006950;28;20666;-65
2022/02/02 11:23:52;;;;;;;47.08;9.82;;;8.60;99.90;;;;;;5040654;28;20072;-66
2022/02/02 11:26:37;;;;;;;46.70;9.25;;;8.70;99.90;;;;;;5027183;28;20056;-66
2022/02/02 11:29:03;;;;;;;37.33;7.57;;;8.80;99.90;;;;;;5037864;28;20439;-66
2022/02/02 11:31:29;;;;;;;32.95;7.07;;;8.80;99.90;;;;;;5009385;28;20143;-66
2022/02/02 11:33:58;;;;;;;34.88;7.13;;;8.70;99.90;;;;;;5045705;28;20049;-65
2022/02/02 11:36:39;;;;;;;48.38;9.75;;;8.60;99.90;;;;;;5044376;28;20092;-65
2022/02/02 11:39:31;;;;;;;27.15;8.10;;;8.50;99.90;;;;;;5027201;28;20491;-65
2022/02/02 11:42:08;;;;;;;37.80;7.22;;;8.40;99.90;;;;;;5043311;28;20045;-66
2022/02/02 11:44:51;;;;;;;34.38;5.88;;;8.30;99.90;;;;;;5030230;28;20415;-66
2022/02/02 11:47:41;;;;;;;39.08;8.13;;;8.30;99.90;;;;;;5049257;28;20064;-65
2022/02/02 11:50:07;;;;;;;31.43;7.27;;;8.10;99.90;;;;;;5051898;28;20040;-66
2022/02/02 11:52:49;;;;;;;39.92;7.88;;;8.10;99.90;;;;;;5050003;28;20566;-66
2022/02/02 11:55:18;;;;;;;34.25;5.63;;;8.20;99.90;;;;;;5052268;28;20037;-66
2022/02/02 11:58:12;;;;;;;32.92;6.75;;;8.20;99.90;;;;;;5031463;28;20040;-65
2022/02/02 12:01:10;;;;;;;30.35;6.40;;;8.30;99.90;;;;;;5054257;28;20040;-65
2022/02/02 12:03:39;;;;;;;33.55;7.03;;;8.40;99.90;;;;;;5035719;28;21118;-66
2022/02/02 13:03:06;;;;;;;21.98;5.90;;;7.60;99.90;;;;;;5056834;28;20080;-66
2022/02/02 13:05:35;;;;;;;24.45;5.72;;;7.70;99.90;;;;;;5052821;28;20049;-66
2022/02/02 13:08:01;;;;;;;34.17;7.63;;;7.80;99.90;;;;;;5058448;28;20036;-66
2022/02/02 13:10:32;;;;;;;26.23;5.90;;;7.80;99.90;;;;;;5064171;28;20048;-66
2022/02/02 13:13:32;;;;;;;27.83;5.43;;;7.90;99.90;;;;;;5068354;28;20032;-66
2022/02/02 13:16:14;;;;;;;28.38;4.70;;;7.90;99.90;;;;;;5063259;28;20052;-66
2022/02/02 13:18:44;;;;;;;28.17;6.00;;;7.90;99.90;;;;;;5066361;28;20094;-66
2022/02/02 13:21:17;;;;;;;37.10;7.95;;;8.00;99.90;;;;;;5040013;28;20045;-66
2022/02/02 13:29:43;;;;;;;30.80;6.00;;;8.00;99.90;;;;;;5045800;28;20728;-66
2022/02/02 14:01:25;;;;;;;25.17;5.07;;;7.60;99.90;;;;;;5060995;28;20048;-66
2022/02/02 14:04:02;;;;;;;28.10;5.93;;;7.60;99.90;;;;;;5030011;28;20458;-66
2022/02/02 14:09:35;;;;;;;21.33;4.30;;;7.50;99.90;;;;;;5018147;28;20207;-66
2022/02/02 14:31:23;;;;;;;33.70;8.52;;;7.40;99.90;;;;;;5066421;28;20139;-66
2022/02/02 14:33:53;;;;;;;30.55;6.80;;;7.40;99.90;;;;;;5060784;28;20126;-66
2022/02/02 14:36:23;;;;;;;29.40;6.85;;;7.40;99.90;;;;;;5064576;28;20044;-66
2022/02/02 14:39:00;;;;;;;29.85;8.13;;;7.40;99.90;;;;;;5064411;28;20091;-66
2022/02/02 14:41:37;;;;;;;40.78;7.63;;;7.50;99.90;;;;;;5065641;28;20486;-65
2022/02/02 14:46:38;;;;;;;36.03;7.80;;;7.50;99.90;;;;;;5066916;28;20052;-66
2022/02/02 14:49:11;;;;;;;31.60;6.43;;;7.60;99.90;;;;;;5065729;28;20141;-66
2022/02/02 15:05:53;;;;;;;32.15;7.03;;;7.50;99.90;;;;;;5032995;28;20456;-66
2022/02/02 15:27:20;;;;;;;34.67;4.63;;;7.50;99.90;;;;;;5055159;28;20052;-66
2022/02/02 15:32:18;;;;;;;36.17;5.30;;;7.40;99.90;;;;;;5063798;28;20067;-66
2022/02/02 15:34:47;;;;;;;34.58;5.40;;;7.40;99.90;;;;;;5066266;28;20044;-65
2022/02/02 15:37:33;;;;;;;25.40;4.88;;;7.40;99.90;;;;;;5065115;28;20056;-66
2022/02/02 15:40:10;;;;;;;34.63;5.65;;;7.30;99.90;;;;;;5028932;28;20037;-66
2022/02/02 15:59:16;;;;;;;31.17;5.53;;;7.20;99.90;;;;;;5031369;28;20052;-66
2022/02/02 16:04:32;;;;;;;31.33;4.57;;;7.10;99.90;;;;;;5011858;28;20434;-66
2022/02/02 16:07:02;;;;;;;29.42;3.95;;;7.00;99.90;;;;;;5041440;28;20060;-66
2022/02/02 16:09:35;;;;;;;38.40;4.95;;;7.10;99.90;;;;;;5038619;28;20056;-66
2022/02/02 16:12:13;;;;;;;21.60;3.60;;;7.10;99.90;;;;;;5038608;28;20064;-66
2022/02/02 16:14:45;;;;;;;28.73;3.88;;;7.10;99.90;;;;;;5025280;28;20064;-66
2022/02/02 16:17:34;;;;;;;23.10;3.65;;;7.00;99.90;;;;;;5039856;28;20379;-65
2022/02/02 16:36:17;;;;;;;28.27;4.28;;;6.50;99.90;;;;;;5041899;28;20547;-65
2022/02/02 16:38:57;;;;;;;30.48;3.58;;;6.40;99.90;;;;;;5028574;28;20049;-65
2022/02/02 16:44:07;;;;;;;30.90;4.05;;;6.20;99.90;;;;;;5010518;28;20049;-66
2022/02/02 16:46:32;;;;;;;29.40;3.75;;;6.10;99.90;;;;;;5035426;28;20062;-65
2022/02/02 16:48:58;;;;;;;30.08;4.25;;;6.10;99.90;;;;;;5041110;28;20061;-66
2022/02/02 16:51:24;;;;;;;38.28;4.88;;;6.00;99.90;;;;;;5049753;28;20044;-66
2022/02/02 16:53:52;;;;;;;39.55;4.85;;;6.00;99.90;;;;;;5048812;28;20040;-66
2022/02/02 17:32:12;;;;;;;20.67;2.85;;;5.30;99.90;;;;;;5038694;28;20041;-66
2022/02/02 17:34:42;;;;;;;17.42;3.13;;;5.30;99.90;;;;;;5049717;28;20162;-66
2022/02/02 17:37:28;;;;;;;17.92;2.58;;;5.20;99.90;;;;;;5047623;28;20037;-66
2022/02/02 17:40:06;;;;;;;11.85;2.35;;;5.20;99.90;;;;;;5056234;28;20048;-66
2022/02/02 18:15:57;;;;;;;20.98;3.33;;;5.20;99.90;;;;;;5063106;28;20080;-65
2022/02/02 18:20:33;;;;;;;24.58;3.25;;;5.20;99.90;;;;;;5022936;28;20119;-65
2022/02/02 18:23:09;;;;;;;23.92;3.28;;;5.10;99.90;;;;;;5055131;28;20052;-66
2022/02/02 18:28:14;;;;;;;29.10;2.85;;;4.90;99.90;;;;;;5055733;28;20124;-67
2022/02/02 18:36:24;;;;;;;25.95;2.72;;;4.50;99.90;;;;;;5065700;28;20076;-65
2022/02/02 18:47:12;;;;;;;23.25;3.80;;;4.30;99.90;;;;;;5053187;28;20091;-65
2022/02/02 18:55:11;;;;;;;21.73;3.83;;;4.10;99.90;;;;;;5063217;28;20487;-65
2022/02/02 19:00:49;;;;;;;24.92;3.33;;;4.10;99.90;;;;;;5055207;28;20091;-65
2022/02/02 19:03:45;;;;;;;18.80;2.60;;;4.10;99.90;;;;;;5041880;28;20075;-65
2022/02/02 19:07:10;;;;;;;45.40;3.80;;;4.10;99.90;;;;;;5062008;28;20187;-65
2022/02/02 19:55:30;;;;;;;27.52;3.83;;;4.20;99.90;;;;;;5046651;28;20045;-65
2022/02/02 20:11:54;;;;;;;26.52;3.85;;;4.40;99.90;;;;;;5005983;28;20146;-64
2022/02/02 20:14:20;;;;;;;34.72;4.72;;;4.40;99.90;;;;;;5039022;28;20049;-65
2022/02/02 20:16:46;;;;;;;31.27;3.80;;;4.40;99.90;;;;;;5048003;28;20049;-65
2022/02/02 20:19:14;;;;;;;25.48;3.85;;;4.50;99.90;;;;;;5063511;28;20037;-65
2022/02/02 20:21:48;;;;;;;26.08;3.78;;;4.60;99.90;;;;;;5053341;28;20053;-65
2022/02/02 20:24:14;;;;;;;35.08;3.95;;;4.60;99.90;;;;;;5051266;28;20441;-65
2022/02/02 20:26:46;;;;;;;21.38;4.07;;;4.60;99.90;;;;;;5036356;28;20056;-65
2022/02/02 20:29:11;;;;;;;24.80;3.92;;;4.70;99.90;;;;;;5058380;28;20435;-65
2022/02/02 20:31:37;;;;;;;28.35;4.55;;;4.70;99.90;;;;;;5056723;28;20155;-65
2022/02/02 20:34:03;;;;;;;31.83;4.10;;;4.70;99.90;;;;;;5040518;28;20053;-64
2022/02/02 20:36:29;;;;;;;21.20;3.65;;;4.70;99.90;;;;;;5058019;28;20036;-65
2022/02/02 20:38:54;;;;;;;26.77;4.07;;;4.80;99.90;;;;;;5027359;28;20045;-65
2022/02/02 20:41:20;;;;;;;31.20;4.88;;;4.80;99.90;;;;;;5061543;28;20041;-65
2022/02/02 20:43:53;;;;;;;31.73;4.60;;;4.80;99.90;;;;;;5076210;28;20052;-65
2022/02/02 21:10:27;;;;;;;24.50;3.67;;;4.90;99.90;;;;;;5063927;28;20044;-65
2022/02/02 21:15:38;;;;;;;25.80;4.13;;;4.90;99.90;;;;;;5052916;28;20110;-65
2022/02/02 21:18:20;;;;;;;28.85;4.30;;;5.00;99.90;;;;;;5062603;28;20044;-65
2022/02/02 21:23:30;;;;;;;29.33;4.47;;;5.10;99.90;;;;;;5066094;28;20093;-65
2022/02/02 21:26:22;;;;;;;27.27;4.32;;;5.10;99.90;;;;;;5067135;28;20075;-65
2022/02/02 21:28:47;;;;;;;26.17;3.85;;;5.10;99.90;;;;;;5025843;28;20069;-65
2022/02/02 21:31:14;;;;;;;23.65;5.55;;;5.20;99.90;;;;;;5046604;28;20087;-65
2022/02/02 21:33:40;;;;;;;26.58;3.72;;;5.20;99.90;;;;;;5031099;28;20487;-65
2022/02/02 21:36:11;;;;;;;24.10;3.55;;;5.20;99.90;;;;;;5065524;28;20051;-65
2022/02/02 21:38:52;;;;;;;30.20;5.30;;;5.20;99.90;;;;;;5066460;28;20395;-65
2022/02/02 21:41:23;;;;;;;25.05;4.20;;;5.20;99.90;;;;;;5064384;28;20045;-66
2022/02/02 21:43:48;;;;;;;38.03;5.18;;;5.30;99.90;;;;;;5066850;28;20036;-65
2022/02/02 21:46:22;;;;;;;22.33;4.75;;;5.30;99.90;;;;;;5046923;28;20448;-65
2022/02/02 21:48:48;;;;;;;29.15;5.13;;;5.40;99.90;;;;;;5080206;28;20047;-65
2022/02/02 21:51:24;;;;;;;35.55;5.20;;;5.40;99.90;;;;;;5064253;28;20046;-65
2022/02/02 21:53:50;;;;;;;36.67;5.20;;;5.40;99.90;;;;;;5053047;28;20371;-65
2022/02/02 21:56:16;;;;;;;26.85;4.65;;;5.40;99.90;;;;;;5065765;28;20078;-65
2022/02/02 21:58:42;;;;;;;32.00;4.68;;;5.40;99.90;;;;;;5064296;28;20454;-65
2022/02/02 22:01:08;;;;;;;32.22;5.05;;;5.40;99.90;;;;;;5064550;28;20056;-65
2022/02/02 22:03:33;;;;;;;33.47;5.93;;;5.40;99.90;;;;;;5064398;28;20076;-65
2022/02/02 22:05:59;;;;;;;27.98;5.28;;;5.50;99.90;;;;;;5065268;28;20094;-65
2022/02/02 22:08:25;;;;;;;33.03;5.13;;;5.50;99.90;;;;;;5043133;28;20059;-65
2022/02/02 22:10:51;;;;;;;26.67;5.53;;;5.60;99.90;;;;;;5046473;28;20054;-65
2022/02/02 22:13:18;;;;;;;32.78;5.95;;;5.50;99.90;;;;;;5065678;28;20110;-65
2022/02/02 22:15:52;;;;;;;33.05;5.53;;;5.60;99.90;;;;;;5047715;28;20044;-65
2022/02/02 22:18:18;;;;;;;26.13;5.40;;;5.60;99.90;;;;;;5032408;28;20052;-65
2022/02/02 22:20:45;;;;;;;33.78;5.63;;;5.60;99.90;;;;;;5051911;28;20033;-65
2022/02/02 22:23:11;;;;;;;41.72;6.53;;;5.60;99.90;;;;;;5052014;28;20041;-65
2022/02/02 22:25:37;;;;;;;34.53;6.60;;;5.60;99.90;;;;;;5065950;28;20036;-65
2022/02/02 22:28:03;;;;;;;44.65;8.88;;;5.60;99.90;;;;;;5045422;28;20251;-64
2022/02/02 22:30:29;;;;;;;46.17;7.10;;;5.60;99.90;;;;;;5066177;28;20040;-64
2022/02/02 22:32:55;;;;;;;46.17;7.32;;;5.60;99.90;;;;;;5053365;28;20044;-64
2022/02/02 22:35:21;;;;;;;37.25;6.88;;;5.60;99.90;;;;;;5065616;28;20322;-64
2022/02/02 22:37:47;;;;;;;37.00;7.15;;;5.60;99.90;;;;;;5046563;28;20032;-64
2022/02/02 22:40:20;;;;;;;37.83;7.05;;;5.60;99.90;;;;;;5030944;28;20086;-64
2022/02/02 22:42:45;;;;;;;36.60;7.28;;;5.60;99.90;;;;;;5046269;28;20083;-64
2022/02/02 22:45:13;;;;;;;44.10;6.50;;;5.60;99.90;;;;;;5065053;28;20068;-64
2022/02/02 22:47:43;;;;;;;39.75;6.55;;;5.70;99.90;;;;;;5065600;28;20121;-64
2022/02/02 22:50:10;;;;;;;32.28;6.97;;;5.60;99.90;;;;;;5064594;28;20094;-64
2022/02/02 22:52:35;;;;;;;34.90;7.50;;;5.70;99.90;;;;;;5063397;28;20040;-64
2022/02/02 22:55:01;;;;;;;30.27;6.10;;;5.70;99.90;;;;;;5064267;28;20056;-64
2022/02/02 22:57:27;;;;;;;27.27;7.40;;;5.70;99.90;;;;;;5047563;28;20101;-64
2022/02/02 22:59:53;;;;;;;26.38;5.95;;;5.70;99.90;;;;;;5033120;28;20171;-64
2022/02/02 23:03:22;;;;;;;27.30;7.40;;;5.70;99.90;;;;;;5064484;28;20403;-64
2022/02/02 23:05:14;;;;;;;22.92;6.63;;;5.70;99.90;;;;;;5034509;28;20198;-64
2022/02/02 23:07:40;;;;;;;24.63;6.88;;;5.70;99.90;;;;;;5046459;28;20518;-64
2022/02/02 23:10:06;;;;;;;29.13;7.45;;;5.70;99.90;;;;;;5047047;28;20106;-63
2022/02/02 23:12:32;;;;;;;27.35;7.75;;;5.80;99.90;;;;;;5050596;28;20464;-64
2022/02/02 23:15:01;;;;;;;25.98;7.18;;;5.80;99.90;;;;;;5062487;28;20498;-64
2022/02/02 23:17:28;;;;;;;27.98;8.40;;;5.80;99.90;;;;;;5046188;28;20060;-64
2022/02/02 23:19:54;;;;;;;25.08;8.82;;;5.90;99.90;;;;;;5062128;28;20041;-64
2022/02/02 23:22:25;;;;;;;25.67;8.43;;;5.90;99.90;;;;;;5046585;28;20533;-64
2022/02/02 23:24:54;;;;;;;25.05;8.60;;;5.90;99.90;;;;;;5045880;28;20107;-64
2022/02/02 23:27:21;;;;;;;24.58;8.85;;;6.00;99.90;;;;;;5042524;28;20058;-64
2022/02/02 23:29:51;;;;;;;23.85;8.15;;;6.00;99.90;;;;;;5058371;28;20059;-64
2022/02/02 23:32:20;;;;;;;42.90;11.50;;;6.10;99.90;;;;;;5046765;28;20049;-64
2022/02/02 23:34:47;;;;;;;46.78;12.10;;;6.10;99.90;;;;;;5026723;28;20578;-64
2022/02/02 23:37:14;;;;;;;34.10;11.10;;;6.10;99.90;;;;;;5035846;28;20123;-64
2022/02/02 23:39:41;;;;;;;52.65;12.98;;;6.10;99.90;;;;;;5064347;28;20036;-64
2022/02/02 23:42:27;;;;;;;53.63;13.55;;;6.20;99.90;;;;;;5045870;28;20076;-64
2022/02/02 23:44:53;;;;;;;50.97;11.77;;;6.20;99.90;;;;;;5064438;28;20078;-64
2022/02/02 23:47:24;;;;;;;63.20;13.88;;;6.20;99.90;;;;;;5056297;28;20515;-64
2022/02/02 23:49:54;;;;;;;;;;;6.20;99.90;;;;;;5043799;28;20067;-64
2022/02/02 23:52:31;;;;;;;63.45;13.35;;;6.20;99.90;;;;;;5063791;28;20374;-64
2022/02/02 23:54:58;;;;;;;43.63;11.40;;;6.20;99.90;;;;;;5046631;28;20040;-64
